sensor_id;sensor_type;location;lat;lon;timestamp;P1;durP1;ratioP1;P2;durP2;ratioP2
32347;SDS011;18821;44.800;10.326;2023-01-25T00:00:13;19.15;;;12.00;;
32347;SDS011;18821;44.800;10.326;2023-01-25T00:02:40;21.52;;;12.95;;
32347;SDS011;18821;44.800;10.326;2023-01-25T00:05:06;21.05;;;12.27;;
32347;SDS011;18821;44.800;10.326;2023-01-25T00:07:32;21.75;;;12.65;;
32347;SDS011;18821;44.800;10.326;2023-01-25T00:09:58;22.02;;;12.45;;
32347;SDS011;18821;44.800;10.326;2023-01-25T00:12:24;20.80;;;12.90;;
32347;SDS011;18821;44.800;10.326;2023-01-25T00:14:49;19.00;;;11.65;;
32347;SDS011;18821;44.800;10.326;2023-01-25T00:17:15;21.50;;;13.05;;
32347;SDS011;18821;44.800;10.326;2023-01-25T00:19:41;21.75;;;12.65;;
32347;SDS011;18821;44.800;10.326;2023-01-25T00:22:07;22.85;;;13.18;;
32347;SDS011;18821;44.800;10.326;2023-01-25T00:24:33;24.27;;;13.50;;
32347;SDS011;18821;44.800;10.326;2023-01-25T00:27:00;26.95;;;14.20;;
32347;SDS011;18821;44.800;10.326;2023-01-25T00:29:26;23.95;;;12.45;;
32347;SDS011;18821;44.800;10.326;2023-01-25T00:31:53;22.23;;;12.93;;
32347;SDS011;18821;44.800;10.326;2023-01-25T00:39:25;26.98;;;15.23;;
32347;SDS011;18821;44.800;10.326;2023-01-25T00:41:52;27.65;;;14.52;;
32347;SDS011;18821;44.800;10.326;2023-01-25T00:44:19;25.83;;;14.40;;
32347;SDS011;18821;44.800;10.326;2023-01-25T00:46:45;27.23;;;16.92;;
32347;SDS011;18821;44.800;10.326;2023-01-25T00:49:18;24.90;;;15.15;;
32347;SDS011;18821;44.800;10.326;2023-01-25T00:51:44;24.10;;;15.00;;
32347;SDS011;18821;44.800;10.326;2023-01-25T00:54:10;28.50;;;14.60;;
32347;SDS011;18821;44.800;10.326;2023-01-25T00:56:36;24.25;;;14.75;;
32347;SDS011;18821;44.800;10.326;2023-01-25T00:59:02;23.95;;;15.23;;
32347;SDS011;18821;44.800;10.326;2023-01-25T01:01:28;26.95;;;16.15;;
32347;SDS011;18821;44.800;10.326;2023-01-25T01:03:54;23.75;;;14.80;;
32347;SDS011;18821;44.800;10.326;2023-01-25T01:06:20;26.55;;;15.13;;
32347;SDS011;18821;44.800;10.326;2023-01-25T01:08:46;27.77;;;15.98;;
32347;SDS011;18821;44.800;10.326;2023-01-25T01:11:12;31.58;;;16.15;;
32347;SDS011;18821;44.800;10.326;2023-01-25T01:13:38;29.73;;;16.52;;
32347;SDS011;18821;44.800;10.326;2023-01-25T01:16:05;30.08;;;17.17;;
32347;SDS011;18821;44.800;10.326;2023-01-25T01:18:45;30.13;;;16.92;;
32347;SDS011;18821;44.800;10.326;2023-01-25T01:21:11;30.38;;;17.05;;
32347;SDS011;18821;44.800;10.326;2023-01-25T01:23:38;33.30;;;17.35;;
32347;SDS011;18821;44.800;10.326;2023-01-25T01:26:06;31.27;;;18.10;;
32347;SDS011;18821;44.800;10.326;2023-01-25T01:28:33;32.67;;;17.33;;
32347;SDS011;18821;44.800;10.326;2023-01-25T01:31:04;33.75;;;17.25;;
32347;SDS011;18821;44.800;10.326;2023-01-25T01:38:38;31.48;;;17.33;;
32347;SDS011;18821;44.800;10.326;2023-01-25T01:41:04;30.33;;;17.88;;
32347;SDS011;18821;44.800;10.326;2023-01-25T01:43:30;31.23;;;16.70;;
32347;SDS011;18821;44.800;10.326;2023-01-25T01:45:59;35.22;;;18.67;;
32347;SDS011;18821;44.800;10.326;2023-01-25T01:51:48;36.42;;;19.00;;
32347;SDS011;18821;44.800;10.326;2023-01-25T01:54:37;31.20;;;16.80;;
32347;SDS011;18821;44.800;10.326;2023-01-25T01:57:18;34.47;;;17.02;;
32347;SDS011;18821;44.800;10.326;2023-01-25T02:00:03;39.13;;;21.27;;
32347;SDS011;18821;44.800;10.326;2023-01-25T02:02:41;41.47;;;20.45;;
32347;SDS011;18821;44.800;10.326;2023-01-25T02:05:13;43.53;;;23.33;;
32347;SDS011;18821;44.800;10.326;2023-01-25T02:07:46;40.85;;;22.33;;
32347;SDS011;18821;44.800;10.326;2023-01-25T02:10:17;46.28;;;23.80;;
32347;SDS011;18821;44.800;10.326;2023-01-25T02:12:44;44.53;;;23.35;;
32347;SDS011;18821;44.800;10.326;2023-01-25T02:15:11;44.67;;;22.98;;
32347;SDS011;18821;44.800;10.326;2023-01-25T02:17:38;41.33;;;21.50;;
32347;SDS011;18821;44.800;10.326;2023-01-25T02:20:06;43.13;;;22.55;;
32347;SDS011;18821;44.800;10.326;2023-01-25T02:22:46;42.70;;;22.38;;
32347;SDS011;18821;44.800;10.326;2023-01-25T02:25:25;43.28;;;22.35;;
32347;SDS011;18821;44.800;10.326;2023-01-25T02:27:53;43.28;;;22.55;;
32347;SDS011;18821;44.800;10.326;2023-01-25T02:30:39;40.65;;;22.40;;
32347;SDS011;18821;44.800;10.326;2023-01-25T02:33:06;44.40;;;22.42;;
32347;SDS011;18821;44.800;10.326;2023-01-25T02:35:41;45.45;;;22.90;;
32347;SDS011;18821;44.800;10.326;2023-01-25T02:38:15;43.92;;;21.08;;
32347;SDS011;18821;44.800;10.326;2023-01-25T02:40:47;46.00;;;23.00;;
32347;SDS011;18821;44.800;10.326;2023-01-25T02:43:18;46.00;;;24.73;;
32347;SDS011;18821;44.800;10.326;2023-01-25T02:45:48;46.53;;;24.23;;
32347;SDS011;18821;44.800;10.326;2023-01-25T02:48:19;43.05;;;23.75;;
32347;SDS011;18821;44.800;10.326;2023-01-25T02:50:45;44.42;;;23.20;;
32347;SDS011;18821;44.800;10.326;2023-01-25T02:53:11;41.42;;;22.45;;
32347;SDS011;18821;44.800;10.326;2023-01-25T02:55:37;46.47;;;23.55;;
32347;SDS011;18821;44.800;10.326;2023-01-25T02:58:03;49.13;;;25.08;;
32347;SDS011;18821;44.800;10.326;2023-01-25T03:00:28;44.60;;;23.90;;
32347;SDS011;18821;44.800;10.326;2023-01-25T03:02:54;44.67;;;24.23;;
32347;SDS011;18821;44.800;10.326;2023-01-25T03:05:22;48.47;;;25.60;;
32347;SDS011;18821;44.800;10.326;2023-01-25T03:07:48;43.78;;;21.52;;
32347;SDS011;18821;44.800;10.326;2023-01-25T03:10:14;50.22;;;26.13;;
32347;SDS011;18821;44.800;10.326;2023-01-25T03:12:41;51.17;;;25.77;;
32347;SDS011;18821;44.800;10.326;2023-01-25T03:15:07;48.85;;;24.95;;
32347;SDS011;18821;44.800;10.326;2023-01-25T03:17:34;47.63;;;24.05;;
32347;SDS011;18821;44.800;10.326;2023-01-25T03:20:00;51.15;;;25.15;;
32347;SDS011;18821;44.800;10.326;2023-01-25T03:22:26;53.28;;;28.55;;
32347;SDS011;18821;44.800;10.326;2023-01-25T03:24:52;53.38;;;27.63;;
32347;SDS011;18821;44.800;10.326;2023-01-25T03:27:19;49.47;;;26.13;;
32347;SDS011;18821;44.800;10.326;2023-01-25T03:30:08;53.92;;;25.98;;
32347;SDS011;18821;44.800;10.326;2023-01-25T03:32:35;55.55;;;26.80;;
32347;SDS011;18821;44.800;10.326;2023-01-25T03:35:06;55.78;;;26.73;;
32347;SDS011;18821;44.800;10.326;2023-01-25T03:37:33;48.47;;;25.90;;
32347;SDS011;18821;44.800;10.326;2023-01-25T03:39:58;56.15;;;29.63;;
32347;SDS011;18821;44.800;10.326;2023-01-25T03:42:24;59.38;;;29.08;;
32347;SDS011;18821;44.800;10.326;2023-01-25T03:44:55;67.85;;;30.48;;
32347;SDS011;18821;44.800;10.326;2023-01-25T03:47:21;60.03;;;27.55;;
32347;SDS011;18821;44.800;10.326;2023-01-25T03:49:47;54.97;;;27.25;;
32347;SDS011;18821;44.800;10.326;2023-01-25T03:52:16;51.50;;;25.80;;
32347;SDS011;18821;44.800;10.326;2023-01-25T03:54:43;53.50;;;26.52;;
32347;SDS011;18821;44.800;10.326;2023-01-25T03:57:09;55.67;;;26.02;;
32347;SDS011;18821;44.800;10.326;2023-01-25T03:59:51;60.05;;;25.23;;
32347;SDS011;18821;44.800;10.326;2023-01-25T04:02:16;58.53;;;27.20;;
32347;SDS011;18821;44.800;10.326;2023-01-25T04:04:42;54.33;;;25.17;;
32347;SDS011;18821;44.800;10.326;2023-01-25T04:07:09;55.47;;;26.58;;
32347;SDS011;18821;44.800;10.326;2023-01-25T04:09:37;56.08;;;27.33;;
32347;SDS011;18821;44.800;10.326;2023-01-25T04:12:04;60.97;;;29.42;;
32347;SDS011;18821;44.800;10.326;2023-01-25T04:14:32;59.40;;;27.73;;
32347;SDS011;18821;44.800;10.326;2023-01-25T04:17:01;53.63;;;26.42;;
32347;SDS011;18821;44.800;10.326;2023-01-25T04:19:55;52.60;;;26.10;;
32347;SDS011;18821;44.800;10.326;2023-01-25T04:22:25;58.90;;;25.73;;
32347;SDS011;18821;44.800;10.326;2023-01-25T04:24:54;58.70;;;25.90;;
32347;SDS011;18821;44.800;10.326;2023-01-25T04:27:21;52.75;;;24.88;;
32347;SDS011;18821;44.800;10.326;2023-01-25T04:30:12;60.50;;;26.00;;
32347;SDS011;18821;44.800;10.326;2023-01-25T04:32:40;55.03;;;26.40;;
32347;SDS011;18821;44.800;10.326;2023-01-25T04:35:23;61.22;;;28.77;;
32347;SDS011;18821;44.800;10.326;2023-01-25T04:37:53;55.00;;;23.50;;
32347;SDS011;18821;44.800;10.326;2023-01-25T04:40:28;54.55;;;27.13;;
32347;SDS011;18821;44.800;10.326;2023-01-25T04:42:54;60.85;;;27.55;;
32347;SDS011;18821;44.800;10.326;2023-01-25T04:45:22;56.00;;;27.23;;
32347;SDS011;18821;44.800;10.326;2023-01-25T04:47:54;61.83;;;28.90;;
32347;SDS011;18821;44.800;10.326;2023-01-25T04:50:21;58.58;;;27.52;;
32347;SDS011;18821;44.800;10.326;2023-01-25T04:52:48;59.17;;;26.42;;
32347;SDS011;18821;44.800;10.326;2023-01-25T04:55:14;56.17;;;25.13;;
32347;SDS011;18821;44.800;10.326;2023-01-25T04:57:42;52.35;;;21.50;;
32347;SDS011;18821;44.800;10.326;2023-01-25T05:00:08;58.63;;;27.95;;
32347;SDS011;18821;44.800;10.326;2023-01-25T05:02:36;59.17;;;28.20;;
32347;SDS011;18821;44.800;10.326;2023-01-25T05:05:05;59.00;;;26.00;;
32347;SDS011;18821;44.800;10.326;2023-01-25T05:07:31;60.95;;;26.75;;
32347;SDS011;18821;44.800;10.326;2023-01-25T05:09:57;56.78;;;27.15;;
32347;SDS011;18821;44.800;10.326;2023-01-25T05:12:23;58.78;;;26.88;;
32347;SDS011;18821;44.800;10.326;2023-01-25T05:14:58;52.38;;;26.70;;
32347;SDS011;18821;44.800;10.326;2023-01-25T05:17:24;47.88;;;20.13;;
32347;SDS011;18821;44.800;10.326;2023-01-25T05:19:50;53.08;;;24.33;;
32347;SDS011;18821;44.800;10.326;2023-01-25T05:22:19;46.85;;;23.60;;
32347;SDS011;18821;44.800;10.326;2023-01-25T05:24:48;48.67;;;24.02;;
32347;SDS011;18821;44.800;10.326;2023-01-25T05:27:17;48.13;;;20.98;;
32347;SDS011;18821;44.800;10.326;2023-01-25T05:29:53;52.63;;;25.38;;
32347;SDS011;18821;44.800;10.326;2023-01-25T05:32:38;54.80;;;26.38;;
32347;SDS011;18821;44.800;10.326;2023-01-25T05:35:05;47.20;;;16.38;;
32347;SDS011;18821;44.800;10.326;2023-01-25T05:37:31;60.33;;;27.60;;
32347;SDS011;18821;44.800;10.326;2023-01-25T05:40:01;57.25;;;22.88;;
32347;SDS011;18821;44.800;10.326;2023-01-25T05:42:31;42.03;;;19.35;;
32347;SDS011;18821;44.800;10.326;2023-01-25T05:44:58;53.75;;;26.98;;
32347;SDS011;18821;44.800;10.326;2023-01-25T05:47:24;61.15;;;29.48;;
32347;SDS011;18821;44.800;10.326;2023-01-25T05:49:50;50.13;;;23.08;;
32347;SDS011;18821;44.800;10.326;2023-01-25T05:52:25;71.05;;;30.45;;
32347;SDS011;18821;44.800;10.326;2023-01-25T05:54:51;49.45;;;23.63;;
32347;SDS011;18821;44.800;10.326;2023-01-25T05:57:17;68.68;;;30.60;;
32347;SDS011;18821;44.800;10.326;2023-01-25T05:59:43;77.60;;;29.88;;
32347;SDS011;18821;44.800;10.326;2023-01-25T06:02:12;61.17;;;26.90;;
32347;SDS011;18821;44.800;10.326;2023-01-25T06:04:39;51.72;;;23.60;;
32347;SDS011;18821;44.800;10.326;2023-01-25T06:07:06;54.53;;;24.10;;
32347;SDS011;18821;44.800;10.326;2023-01-25T06:09:34;62.78;;;28.52;;
32347;SDS011;18821;44.800;10.326;2023-01-25T06:12:00;69.65;;;31.98;;
32347;SDS011;18821;44.800;10.326;2023-01-25T06:14:26;74.50;;;32.17;;
32347;SDS011;18821;44.800;10.326;2023-01-25T06:16:52;72.25;;;32.55;;
32347;SDS011;18821;44.800;10.326;2023-01-25T06:19:37;94.05;;;34.63;;
32347;SDS011;18821;44.800;10.326;2023-01-25T06:22:11;135.38;;;32.30;;
32347;SDS011;18821;44.800;10.326;2023-01-25T06:24:37;100.75;;;30.88;;
32347;SDS011;18821;44.800;10.326;2023-01-25T06:27:03;120.63;;;34.83;;
32347;SDS011;18821;44.800;10.326;2023-01-25T06:29:29;83.57;;;27.60;;
32347;SDS011;18821;44.800;10.326;2023-01-25T06:31:55;78.60;;;26.77;;
32347;SDS011;18821;44.800;10.326;2023-01-25T06:34:21;230.93;;;36.65;;
32347;SDS011;18821;44.800;10.326;2023-01-25T06:36:49;172.70;;;36.88;;
32347;SDS011;18821;44.800;10.326;2023-01-25T06:39:15;142.50;;;36.05;;
32347;SDS011;18821;44.800;10.326;2023-01-25T06:41:41;210.95;;;40.58;;
32347;SDS011;18821;44.800;10.326;2023-01-25T06:44:07;86.45;;;35.47;;
32347;SDS011;18821;44.800;10.326;2023-01-25T06:46:33;91.60;;;33.95;;
32347;SDS011;18821;44.800;10.326;2023-01-25T06:48:59;133.50;;;39.10;;
32347;SDS011;18821;44.800;10.326;2023-01-25T06:51:25;169.98;;;39.83;;
32347;SDS011;18821;44.800;10.326;2023-01-25T06:53:51;86.13;;;34.03;;
32347;SDS011;18821;44.800;10.326;2023-01-25T06:56:18;104.07;;;38.17;;
32347;SDS011;18821;44.800;10.326;2023-01-25T06:58:46;143.07;;;42.22;;
32347;SDS011;18821;44.800;10.326;2023-01-25T07:01:14;117.10;;;41.40;;
32347;SDS011;18821;44.800;10.326;2023-01-25T07:03:40;96.13;;;37.65;;
32347;SDS011;18821;44.800;10.326;2023-01-25T07:06:07;96.82;;;40.58;;
32347;SDS011;18821;44.800;10.326;2023-01-25T07:08:35;91.07;;;38.88;;
32347;SDS011;18821;44.800;10.326;2023-01-25T07:11:02;83.70;;;33.55;;
32347;SDS011;18821;44.800;10.326;2023-01-25T07:13:30;87.95;;;39.03;;
32347;SDS011;18821;44.800;10.326;2023-01-25T07:15:58;94.60;;;41.58;;
32347;SDS011;18821;44.800;10.326;2023-01-25T07:18:30;101.55;;;38.53;;
32347;SDS011;18821;44.800;10.326;2023-01-25T07:21:03;91.43;;;41.00;;
32347;SDS011;18821;44.800;10.326;2023-01-25T07:23:30;83.73;;;39.27;;
32347;SDS011;18821;44.800;10.326;2023-01-25T07:25:57;86.18;;;38.20;;
32347;SDS011;18821;44.800;10.326;2023-01-25T07:28:25;89.88;;;37.70;;
32347;SDS011;18821;44.800;10.326;2023-01-25T07:30:51;76.18;;;35.38;;
32347;SDS011;18821;44.800;10.326;2023-01-25T07:33:17;86.40;;;43.15;;
32347;SDS011;18821;44.800;10.326;2023-01-25T07:35:43;87.80;;;41.20;;
32347;SDS011;18821;44.800;10.326;2023-01-25T07:38:09;58.58;;;26.42;;
32347;SDS011;18821;44.800;10.326;2023-01-25T07:40:35;77.22;;;35.70;;
32347;SDS011;18821;44.800;10.326;2023-01-25T07:43:01;84.85;;;38.33;;
32347;SDS011;18821;44.800;10.326;2023-01-25T07:45:29;71.35;;;35.22;;
32347;SDS011;18821;44.800;10.326;2023-01-25T07:47:58;66.95;;;32.35;;
32347;SDS011;18821;44.800;10.326;2023-01-25T07:50:26;78.68;;;37.17;;
32347;SDS011;18821;44.800;10.326;2023-01-25T07:52:52;76.93;;;37.67;;
32347;SDS011;18821;44.800;10.326;2023-01-25T07:55:18;83.35;;;39.92;;
32347;SDS011;18821;44.800;10.326;2023-01-25T07:57:45;64.30;;;33.50;;
32347;SDS011;18821;44.800;10.326;2023-01-25T08:00:12;75.32;;;37.33;;
32347;SDS011;18821;44.800;10.326;2023-01-25T08:02:38;69.65;;;32.70;;
32347;SDS011;18821;44.800;10.326;2023-01-25T08:05:05;73.65;;;37.28;;
32347;SDS011;18821;44.800;10.326;2023-01-25T08:07:31;73.20;;;37.33;;
32347;SDS011;18821;44.800;10.326;2023-01-25T08:09:57;67.75;;;35.60;;
32347;SDS011;18821;44.800;10.326;2023-01-25T08:12:23;67.13;;;35.72;;
32347;SDS011;18821;44.800;10.326;2023-01-25T08:14:52;65.90;;;34.83;;
32347;SDS011;18821;44.800;10.326;2023-01-25T08:17:18;62.58;;;33.15;;
32347;SDS011;18821;44.800;10.326;2023-01-25T08:19:44;58.72;;;30.60;;
32347;SDS011;18821;44.800;10.326;2023-01-25T08:22:09;59.72;;;33.17;;
32347;SDS011;18821;44.800;10.326;2023-01-25T08:24:37;60.60;;;31.65;;
32347;SDS011;18821;44.800;10.326;2023-01-25T08:27:03;65.43;;;32.42;;
32347;SDS011;18821;44.800;10.326;2023-01-25T08:29:29;62.03;;;34.03;;
32347;SDS011;18821;44.800;10.326;2023-01-25T08:31:55;60.80;;;31.98;;
32347;SDS011;18821;44.800;10.326;2023-01-25T08:34:21;64.20;;;33.25;;
32347;SDS011;18821;44.800;10.326;2023-01-25T08:36:47;60.13;;;33.42;;
32347;SDS011;18821;44.800;10.326;2023-01-25T08:39:14;54.67;;;29.85;;
32347;SDS011;18821;44.800;10.326;2023-01-25T08:41:41;55.60;;;29.73;;
32347;SDS011;18821;44.800;10.326;2023-01-25T08:44:09;55.38;;;29.80;;
32347;SDS011;18821;44.800;10.326;2023-01-25T08:46:35;64.32;;;31.42;;
32347;SDS011;18821;44.800;10.326;2023-01-25T08:49:02;61.25;;;32.13;;
32347;SDS011;18821;44.800;10.326;2023-01-25T08:51:29;61.85;;;30.83;;
32347;SDS011;18821;44.800;10.326;2023-01-25T08:53:56;66.47;;;33.25;;
32347;SDS011;18821;44.800;10.326;2023-01-25T08:56:27;52.38;;;29.77;;
32347;SDS011;18821;44.800;10.326;2023-01-25T08:58:53;60.78;;;29.92;;
32347;SDS011;18821;44.800;10.326;2023-01-25T09:01:19;49.38;;;28.00;;
32347;SDS011;18821;44.800;10.326;2023-01-25T09:03:46;52.97;;;27.42;;
32347;SDS011;18821;44.800;10.326;2023-01-25T09:06:13;49.22;;;27.42;;
32347;SDS011;18821;44.800;10.326;2023-01-25T09:08:39;49.03;;;27.40;;
32347;SDS011;18821;44.800;10.326;2023-01-25T09:11:07;50.03;;;28.65;;
32347;SDS011;18821;44.800;10.326;2023-01-25T09:13:35;50.35;;;26.70;;
32347;SDS011;18821;44.800;10.326;2023-01-25T09:16:05;50.67;;;27.27;;
32347;SDS011;18821;44.800;10.326;2023-01-25T09:18:37;52.63;;;26.25;;
32347;SDS011;18821;44.800;10.326;2023-01-25T09:21:05;53.50;;;25.60;;
32347;SDS011;18821;44.800;10.326;2023-01-25T09:26:08;51.22;;;25.02;;
32347;SDS011;18821;44.800;10.326;2023-01-25T09:28:35;32.88;;;18.15;;
32347;SDS011;18821;44.800;10.326;2023-01-25T09:31:03;35.15;;;18.27;;
32347;SDS011;18821;44.800;10.326;2023-01-25T09:33:50;27.10;;;16.83;;
32347;SDS011;18821;44.800;10.326;2023-01-25T09:36:17;26.75;;;16.70;;
32347;SDS011;18821;44.800;10.326;2023-01-25T09:38:43;28.15;;;16.95;;
32347;SDS011;18821;44.800;10.326;2023-01-25T09:47:02;21.63;;;12.25;;
32347;SDS011;18821;44.800;10.326;2023-01-25T09:52:47;25.60;;;13.07;;
32347;SDS011;18821;44.800;10.326;2023-01-25T09:55:20;23.27;;;13.23;;
32347;SDS011;18821;44.800;10.326;2023-01-25T09:57:49;21.58;;;12.30;;
32347;SDS011;18821;44.800;10.326;2023-01-25T10:00:30;23.30;;;12.25;;
32347;SDS011;18821;44.800;10.326;2023-01-25T10:05:44;26.85;;;12.32;;
32347;SDS011;18821;44.800;10.326;2023-01-25T10:10:41;22.00;;;12.55;;
32347;SDS011;18821;44.800;10.326;2023-01-25T10:13:09;21.02;;;12.40;;
32347;SDS011;18821;44.800;10.326;2023-01-25T10:15:38;22.30;;;12.05;;
32347;SDS011;18821;44.800;10.326;2023-01-25T10:21:02;17.50;;;11.23;;
32347;SDS011;18821;44.800;10.326;2023-01-25T10:24:06;19.95;;;10.85;;
32347;SDS011;18821;44.800;10.326;2023-01-25T10:26:54;21.75;;;11.60;;
32347;SDS011;18821;44.800;10.326;2023-01-25T10:29:25;22.20;;;11.93;;
32347;SDS011;18821;44.800;10.326;2023-01-25T10:31:53;26.23;;;12.50;;
32347;SDS011;18821;44.800;10.326;2023-01-25T10:34:31;21.52;;;11.57;;
32347;SDS011;18821;44.800;10.326;2023-01-25T10:37:11;21.02;;;11.30;;
32347;SDS011;18821;44.800;10.326;2023-01-25T10:39:40;20.42;;;11.65;;
32347;SDS011;18821;44.800;10.326;2023-01-25T10:42:19;25.17;;;12.40;;
32347;SDS011;18821;44.800;10.326;2023-01-25T10:44:49;24.10;;;12.65;;
32347;SDS011;18821;44.800;10.326;2023-01-25T10:47:16;23.90;;;12.15;;
32347;SDS011;18821;44.800;10.326;2023-01-25T10:50:04;27.48;;;12.30;;
32347;SDS011;18821;44.800;10.326;2023-01-25T10:52:30;26.35;;;13.48;;
32347;SDS011;18821;44.800;10.326;2023-01-25T10:57:53;22.92;;;12.20;;
32347;SDS011;18821;44.800;10.326;2023-01-25T11:00:35;16.20;;;11.07;;
32347;SDS011;18821;44.800;10.326;2023-01-25T11:03:04;23.33;;;12.15;;
32347;SDS011;18821;44.800;10.326;2023-01-25T11:05:36;18.63;;;11.25;;
32347;SDS011;18821;44.800;10.326;2023-01-25T11:11:22;21.35;;;12.18;;
32347;SDS011;18821;44.800;10.326;2023-01-25T11:13:50;21.85;;;10.75;;
32347;SDS011;18821;44.800;10.326;2023-01-25T11:19:08;23.33;;;13.13;;
32347;SDS011;18821;44.800;10.326;2023-01-25T11:21:55;21.25;;;11.55;;
32347;SDS011;18821;44.800;10.326;2023-01-25T11:24:30;19.50;;;12.60;;
32347;SDS011;18821;44.800;10.326;2023-01-25T11:27:19;27.25;;;13.32;;
32347;SDS011;18821;44.800;10.326;2023-01-25T11:30:09;28.25;;;14.43;;
32347;SDS011;18821;44.800;10.326;2023-01-25T11:32:40;16.50;;;10.60;;
32347;SDS011;18821;44.800;10.326;2023-01-25T11:35:14;20.33;;;11.75;;
32347;SDS011;18821;44.800;10.326;2023-01-25T11:37:50;20.67;;;10.95;;
32347;SDS011;18821;44.800;10.326;2023-01-25T11:46:11;27.40;;;12.10;;
32347;SDS011;18821;44.800;10.326;2023-01-25T11:51:28;20.23;;;11.10;;
32347;SDS011;18821;44.800;10.326;2023-01-25T12:04:49;21.88;;;10.65;;
32347;SDS011;18821;44.800;10.326;2023-01-25T12:15:47;22.58;;;9.38;;
32347;SDS011;18821;44.800;10.326;2023-01-25T12:18:24;22.00;;;9.75;;
32347;SDS011;18821;44.800;10.326;2023-01-25T12:26:28;31.17;;;11.52;;
32347;SDS011;18821;44.800;10.326;2023-01-25T12:31:59;19.08;;;9.48;;
32347;SDS011;18821;44.800;10.326;2023-01-25T12:34:45;22.42;;;9.80;;
32347;SDS011;18821;44.800;10.326;2023-01-25T12:37:47;17.63;;;8.02;;
32347;SDS011;18821;44.800;10.326;2023-01-25T12:40:10;19.88;;;8.20;;
32347;SDS011;18821;44.800;10.326;2023-01-25T12:42:44;24.27;;;11.10;;
32347;SDS011;18821;44.800;10.326;2023-01-25T12:45:20;13.70;;;8.88;;
32347;SDS011;18821;44.800;10.326;2023-01-25T12:48:09;21.00;;;8.75;;
32347;SDS011;18821;44.800;10.326;2023-01-25T12:50:43;20.45;;;9.65;;
32347;SDS011;18821;44.800;10.326;2023-01-25T12:55:59;18.58;;;8.85;;
32347;SDS011;18821;44.800;10.326;2023-01-25T13:01:20;17.67;;;8.20;;
32347;SDS011;18821;44.800;10.326;2023-01-25T13:06:47;14.25;;;7.97;;
32347;SDS011;18821;44.800;10.326;2023-01-25T13:09:39;14.82;;;8.60;;
32347;SDS011;18821;44.800;10.326;2023-01-25T13:12:14;17.75;;;8.63;;
32347;SDS011;18821;44.800;10.326;2023-01-25T13:14:40;29.75;;;11.13;;
32347;SDS011;18821;44.800;10.326;2023-01-25T13:19:55;21.73;;;9.77;;
32347;SDS011;18821;44.800;10.326;2023-01-25T13:27:41;19.92;;;9.15;;
32347;SDS011;18821;44.800;10.326;2023-01-25T13:30:25;24.27;;;9.82;;
32347;SDS011;18821;44.800;10.326;2023-01-25T13:33:03;17.45;;;9.40;;
32347;SDS011;18821;44.800;10.326;2023-01-25T13:35:32;16.90;;;8.48;;
32347;SDS011;18821;44.800;10.326;2023-01-25T13:40:41;20.45;;;8.98;;
32347;SDS011;18821;44.800;10.326;2023-01-25T13:45:37;17.70;;;8.52;;
32347;SDS011;18821;44.800;10.326;2023-01-25T13:48:12;18.27;;;8.82;;
32347;SDS011;18821;44.800;10.326;2023-01-25T13:50:48;15.55;;;7.40;;
32347;SDS011;18821;44.800;10.326;2023-01-25T13:53:21;16.70;;;8.23;;
32347;SDS011;18821;44.800;10.326;2023-01-25T13:55:50;17.75;;;8.25;;
32347;SDS011;18821;44.800;10.326;2023-01-25T13:58:28;18.55;;;7.97;;
32347;SDS011;18821;44.800;10.326;2023-01-25T14:03:34;16.80;;;8.50;;
32347;SDS011;18821;44.800;10.326;2023-01-25T14:06:06;16.20;;;8.18;;
32347;SDS011;18821;44.800;10.326;2023-01-25T14:08:43;22.15;;;9.32;;
32347;SDS011;18821;44.800;10.326;2023-01-25T14:11:16;18.50;;;8.82;;
32347;SDS011;18821;44.800;10.326;2023-01-25T14:16:41;14.57;;;7.88;;
32347;SDS011;18821;44.800;10.326;2023-01-25T14:19:24;15.85;;;7.68;;
32347;SDS011;18821;44.800;10.326;2023-01-25T14:30:25;18.08;;;8.35;;
32347;SDS011;18821;44.800;10.326;2023-01-25T14:32:54;17.42;;;8.68;;
32347;SDS011;18821;44.800;10.326;2023-01-25T14:35:31;16.35;;;8.02;;
32347;SDS011;18821;44.800;10.326;2023-01-25T14:38:08;17.17;;;9.00;;
32347;SDS011;18821;44.800;10.326;2023-01-25T14:40:52;25.17;;;10.27;;
32347;SDS011;18821;44.800;10.326;2023-01-25T14:43:31;20.65;;;9.65;;
32347;SDS011;18821;44.800;10.326;2023-01-25T14:46:16;19.10;;;8.95;;
32347;SDS011;18821;44.800;10.326;2023-01-25T14:49:05;16.42;;;8.88;;
32347;SDS011;18821;44.800;10.326;2023-01-25T14:51:31;19.77;;;9.43;;
32347;SDS011;18821;44.800;10.326;2023-01-25T14:53:59;20.08;;;9.35;;
32347;SDS011;18821;44.800;10.326;2023-01-25T14:56:40;19.35;;;9.23;;
32347;SDS011;18821;44.800;10.326;2023-01-25T15:01:48;16.27;;;8.25;;
32347;SDS011;18821;44.800;10.326;2023-01-25T15:04:16;18.05;;;8.50;;
32347;SDS011;18821;44.800;10.326;2023-01-25T15:06:49;19.48;;;8.20;;
32347;SDS011;18821;44.800;10.326;2023-01-25T15:14:50;16.17;;;7.57;;
32347;SDS011;18821;44.800;10.326;2023-01-25T15:20:05;13.57;;;7.70;;
32347;SDS011;18821;44.800;10.326;2023-01-25T15:22:49;18.80;;;8.03;;
32347;SDS011;18821;44.800;10.326;2023-01-25T15:25:15;15.15;;;7.40;;
32347;SDS011;18821;44.800;10.326;2023-01-25T15:27:41;27.52;;;8.82;;
32347;SDS011;18821;44.800;10.326;2023-01-25T15:30:12;19.55;;;8.90;;
32347;SDS011;18821;44.800;10.326;2023-01-25T15:32:38;18.77;;;8.98;;
32347;SDS011;18821;44.800;10.326;2023-01-25T15:35:10;16.77;;;8.77;;
32347;SDS011;18821;44.800;10.326;2023-01-25T15:37:43;18.60;;;7.63;;
32347;SDS011;18821;44.800;10.326;2023-01-25T15:40:10;22.90;;;8.70;;
32347;SDS011;18821;44.800;10.326;2023-01-25T15:42:37;15.75;;;8.23;;
32347;SDS011;18821;44.800;10.326;2023-01-25T15:45:04;20.60;;;7.80;;
32347;SDS011;18821;44.800;10.326;2023-01-25T15:47:34;16.30;;;7.70;;
32347;SDS011;18821;44.800;10.326;2023-01-25T15:50:01;15.70;;;7.03;;
32347;SDS011;18821;44.800;10.326;2023-01-25T15:52:28;16.58;;;7.28;;
32347;SDS011;18821;44.800;10.326;2023-01-25T15:54:54;17.50;;;7.35;;
32347;SDS011;18821;44.800;10.326;2023-01-25T15:57:27;17.02;;;7.00;;
32347;SDS011;18821;44.800;10.326;2023-01-25T16:02:21;19.23;;;8.07;;
32347;SDS011;18821;44.800;10.326;2023-01-25T16:04:47;16.48;;;7.50;;
32347;SDS011;18821;44.800;10.326;2023-01-25T16:07:21;20.25;;;7.68;;
32347;SDS011;18821;44.800;10.326;2023-01-25T16:09:52;15.18;;;7.18;;
32347;SDS011;18821;44.800;10.326;2023-01-25T16:12:17;19.75;;;8.68;;
32347;SDS011;18821;44.800;10.326;2023-01-25T16:14:46;15.50;;;7.78;;
32347;SDS011;18821;44.800;10.326;2023-01-25T16:17:17;19.30;;;8.02;;
32347;SDS011;18821;44.800;10.326;2023-01-25T16:19:44;16.38;;;7.50;;
32347;SDS011;18821;44.800;10.326;2023-01-25T16:22:15;19.20;;;7.75;;
32347;SDS011;18821;44.800;10.326;2023-01-25T16:24:43;17.90;;;8.10;;
32347;SDS011;18821;44.800;10.326;2023-01-25T16:27:13;18.05;;;9.02;;
32347;SDS011;18821;44.800;10.326;2023-01-25T16:29:45;19.17;;;8.73;;
32347;SDS011;18821;44.800;10.326;2023-01-25T16:32:11;27.52;;;9.18;;
32347;SDS011;18821;44.800;10.326;2023-01-25T16:34:37;22.05;;;8.82;;